Date,TemperatureHighF,TemperatureAvgF,TemperatureLowF,DewpointHighF,DewpointAvgF,DewpointLowF,HumidityHigh,HumidityAvg,HumidityLow,PressureMaxIn,PressureMinIn,WindSpeedMaxMPH,WindSpeedAvgMPH,GustSpeedMaxMPH,PrecipitationSumIn
2013-1-1,16,1,-16,11,-7,-22,82,69,53,30.30,30.06,3,0,0,0.00
2013-1-2,21,15,7,12,8,2,85,75,59,30.07,29.94,4,0,0,0.00
2013-1-3,20,16,8,17,10,1,88,79,70,30.20,30.04,4,1,0,0.00
2013-1-4,32,19,8,17,11,3,89,72,52,30.13,29.99,12,1,0,0.00
2013-1-5,27,16,5,21,10,0,90,80,66,30.12,29.83,4,0,0,0.00
2013-1-6,26,18,6,17,11,1,86,74,56,30.20,29.91,5,1,0,0.00
2013-1-7,38,26,10,24,18,7,87,73,57,30.11,29.86,7,1,0,0.01
2013-1-8,39,26,8,29,19,4,95,78,62,29.99,29.76,10,1,0,0.00
2013-1-9,39,31,19,26,21,15,84,69,49,30.34,29.82,17,2,0,0.00
2013-1-10,41,30,17,33,22,14,95,75,42,30.36,29.72,4,0,0,0.25
2013-1-11,42,37,34,41,36,33,99,97,96,29.74,29.36,3,0,0,0.01
2013-1-12,42,23,10,42,16,1,99,74,62,30.04,29.34,17,3,0,0.00
2013-1-13,12,8,4,4,0,-2,77,71,62,30.24,29.99,5,1,0,0.00
2013-1-14,15,7,0,6,0,-5,84,75,65,30.39,30.23,6,1,0,0.00
2013-1-15,32,18,0,16,9,-5,89,69,49,30.34,29.86,9,1,0,0.00
2013-1-16,35,27,16,29,17,1,84,68,42,30.13,29.63,9,2,0,0.01
2013-1-17,18,12,6,6,0,-5,83,60,46,30.39,30.14,6,1,0,0.00
2013-1-18,44,28,8,30,20,4,84,74,57,30.32,29.68,13,1,0,0.03
2013-1-19,41,26,4,31,18,-6,90,73,49,30.08,29.59,10,2,0,0.00
2013-1-20,10,4,0,-4,-6,-9,73,62,45,30.36,30.09,9,2,0,0.00
2013-1-21,2,-6,-9,-7,-17,-22,68,57,47,30.32,30.20,12,2,0,0.00
2013-1-22,2,-5,-12,-10,-16,-21,74,61,48,30.41,30.27,4,0,0,0.00
2013-1-23,16,5,-5,6,-4,-18,80,65,43,30.57,30.10,10,2,0,0.00
2013-1-24,10,1,-8,1,-10,-18,67,59,52,30.70,30.27,4,1,0,0.00
2013-1-25,21,14,6,13,6,-2,81,72,57,30.25,29.90,7,1,0,0.00
2013-1-26,23,11,-7,11,0,-13,83,64,49,30.39,30.17,9,1,0,0.00
2013-1-27,30,27,20,29,20,10,95,77,58,30.18,29.77,5,0,0,0.00
2013-1-28,35,32,30,32,30,29,96,94,86,29.88,29.63,2,0,0,0.07
2013-1-29,34,33,30,34,31,24,100,92,78,29.62,29.45,7,1,0,0.40
2013-1-30,30,20,11,24,14,3,88,78,69,29.65,29.49,10,3,0,0.00
2013-1-31,11,5,-4,5,-4,-14,79,69,60,30.20,29.65,9,3,0,0.00
2013-2-1,5,-3,-12,-2,-14,-21,78,60,44,30.33,30.09,5,1,0,0.00
2013-2-2,14,6,2,1,-3,-7,79,67,45,30.17,29.96,5,0,0,0.00
2013-2-3,16,10,6,5,2,-1,81,68,50,30.03,29.93,6,1,0,0.00
2013-2-4,19,10,1,6,-1,-5,81,65,37,30.03,29.84,4,0,0,0.03
2013-2-5,27,17,-1,22,10,-7,88,75,58,30.07,29.64,6,1,0,0.00
2013-2-6,26,12,-8,22,7,-14,87,81,74,30.16,29.98,3,0,0,0.00
2013-2-7,27,26,25,25,22,20,92,87,82,30.19,29.96,3,0,0,0.00
2013-2-8,32,18,6,20,9,0,88,68,41,30.37,30.19,2,0,0,0.08
2013-2-9,30,23,3,23,18,-1,90,82,72,30.29,29.95,7,1,0,0.00
2013-2-10,36,31,26,35,29,22,97,91,81,29.95,29.19,5,1,0,0.26
2013-2-11,35,28,21,34,24,14,97,86,74,29.98,29.20,7,1,0,0.06
2013-2-12,36,25,16,24,18,11,88,73,55,30.00,29.76,5,1,0,0.10
2013-2-13,38,30,21,30,23,17,92,76,58,29.75,29.51,5,1,0,0.05
2013-2-14,35,28,12,30,21,3,94,78,57,30.09,29.50,6,1,0,0.16
2013-2-15,19,11,4,5,1,-2,81,65,52,30.25,30.09,6,1,0,0.01
2013-2-16,21,7,-8,3,-4,-15,80,64,43,30.21,30.14,4,0,0,0.00
2013-2-17,30,11,-13,15,0,-19,86,64,46,30.17,29.72,5,1,0,0.01
2013-2-18,38,26,17,30,20,12,89,78,67,29.71,29.45,6,1,0,0.03
2013-2-19,16,8,2,12,-4,-10,81,60,48,30.29,29.62,11,3,0,0.00
2013-2-20,23,9,-3,7,-2,-11,73,63,49,30.43,30.29,4,1,0,0.01
2013-2-21,24,12,-5,12,3,-11,83,67,47,30.47,30.08,3,0,0,0.00
2013-2-22,32,25,20,25,21,13,90,85,73,30.07,29.78,2,0,0,0.01
2013-2-23,31,25,21,23,21,18,90,83,73,29.90,29.78,8,1,0,0.01
2013-2-24,42,27,16,23,19,12,89,73,45,30.07,29.91,4,0,0,0.06
2013-2-25,35,28,16,27,23,12,91,82,71,30.09,29.99,2,0,0,0.00
2013-2-26,38,31,26,26,24,22,89,76,60,30.01,29.77,8,1,0,0.00
2013-2-27,36,32,30,27,24,22,79,73,64,29.89,29.75,9,2,0,0.00
2013-2-28,32,29,23,25,20,14,82,69,62,30.17,29.90,6,1,0,0.01
2013-3-1,35,25,17,15,13,10,72,60,40,30.30,30.17,3,0,0,0.00
2013-3-2,32,18,1,14,7,-5,87,64,37,30.33,30.16,5,0,0,0.00
2013-3-3,36,18,-2,10,2,-8,87,54,25,30.17,30.01,4,0,0,0.00
2013-3-4,28,22,13,20,11,0,79,63,49,30.04,29.97,7,1,0,0.00
2013-3-5,30,25,22,25,21,19,89,85,79,30.19,29.96,4,0,0,0.02
2013-3-6,32,23,8,20,15,2,85,72,52,30.35,30.18,6,1,0,0.19
2013-3-7,38,19,-3,18,8,-9,89,65,39,30.41,30.31,4,0,0,0.11
2013-3-8,45,28,10,27,19,6,92,70,49,30.36,30.11,8,1,0,0.01
2013-3-9,36,34,31,35,31,24,96,90,71,30.10,29.67,9,0,0,0.32
2013-3-10,37,34,30,34,32,29,97,92,81,29.85,29.68,5,1,0,0.12
2013-3-11,34,29,26,31,26,23,95,91,87,29.75,29.62,0,0,0,0.01
2013-3-12,32,25,20,23,18,13,88,75,55,30.08,29.74,12,2,0,0.01
2013-3-13,34,22,12,15,9,4,81,59,36,30.30,30.09,5,1,0,0.04
2013-3-14,42,26,15,29,20,8,86,77,58,30.25,29.98,4,1,0,0.09
2013-3-15,37,31,25,31,27,22,92,86,74,29.95,29.79,2,0,0,0.09
2013-3-16,30,23,14,25,15,5,92,74,54,30.17,29.80,6,1,0,0.23
2013-3-17,30,18,2,14,6,-5,79,63,40,30.26,29.93,5,1,0,0.03
2013-3-18,30,21,15,25,16,9,87,81,71,29.92,29.54,11,2,0,0.00
2013-3-19,26,16,8,8,4,-4,77,59,42,30.08,29.68,14,4,0,0.08
2013-3-20,21,11,2,3,-3,-8,71,55,42,30.12,30.06,7,2,0,0.00
2013-3-21,28,10,-11,9,-2,-18,84,62,42,30.12,30.04,4,1,0,0.02
2013-3-22,40,18,-4,17,5,-10,87,61,32,30.08,30.00,4,0,0,0.01
2013-3-23,44,26,10,22,16,6,90,67,39,30.13,30.02,4,0,0,0.00
2013-3-24,35,30,25,23,21,17,77,68,56,30.05,29.89,5,1,0,0.00
2013-3-25,38,28,15,22,17,10,86,66,45,30.15,29.95,7,1,0,0.00
2013-3-26,42,32,22,23,20,17,84,65,45,30.23,30.15,7,1,0,0.00
2013-3-27,46,35,23,23,18,12,74,53,27,30.29,30.23,5,1,0,0.00
2013-3-28,51,32,13,22,16,9,92,58,25,30.34,30.25,4,0,0,0.00
2013-3-29,51,34,17,25,19,13,90,61,27,30.29,30.07,4,0,0,0.00
2013-3-30,41,38,29,40,34,26,95,85,60,30.07,29.77,7,0,0,0.68
2013-3-31,41,33,27,33,24,12,96,73,35,29.96,29.70,9,2,0,0.01
2013-4-1,33,26,18,14,11,8,71,55,41,30.17,29.97,7,2,0,0.00
2013-4-2,37,26,16,15,12,8,73,56,41,30.30,30.17,10,1,0,0.00
2013-4-3,45,31,10,22,13,5,89,54,26,30.41,30.07,7,1,0,0.00
2013-4-4,50,42,31,33,26,21,69,54,40,30.07,29.95,5,2,0,0.00
2013-4-5,45,34,22,31,21,14,92,62,28,30.21,29.96,4,0,0,0.00
2013-4-6,49,38,33,38,30,23,94,76,49,29.95,29.43,9,2,0,0.38
2013-4-7,47,38,34,35,32,30,92,81,58,29.90,29.63,5,0,0,0.00
2013-4-8,43,38,35,39,36,32,97,91,82,29.96,29.66,3,0,0,0.33
2013-4-9,40,37,34,39,35,28,96,90,72,30.08,29.93,3,0,0,0.50
2013-4-10,40,34,28,32,29,21,95,82,52,30.13,29.85,5,0,0,0.50
2013-4-11,37,33,29,33,28,21,94,80,55,29.86,29.62,7,1,0,0.24
2013-4-12,37,32,28,31,28,26,94,87,71,29.74,29.58,6,0,0,0.26
2013-4-13,38,31,24,27,25,19,90,78,60,29.95,29.73,5,1,0,0.08
2013-4-14,35,30,21,34,27,18,97,89,72,29.95,29.51,6,2,0,0.01
2013-4-15,42,37,32,35,29,25,98,75,57,29.89,29.54,13,3,0,0.04
2013-4-16,47,37,28,28,26,22,81,66,46,30.28,29.89,9,1,0,0.00
2013-4-17,40,35,26,33,28,23,92,78,67,30.29,29.80,5,1,0,0.04
2013-4-18,38,35,32,35,34,31,96,95,89,29.81,29.28,6,1,0,0.58
2013-4-19,35,31,25,30,25,20,96,80,61,29.91,29.25,13,3,0,0.11
2013-4-20,44,30,16,20,14,9,91,56,26,30.29,29.92,5,1,0,0.00
2013-4-21,45,36,27,43,31,16,96,80,56,30.32,30.04,7,1,0,0.30
2013-4-22,45,39,32,44,38,31,97,97,96,30.13,29.97,5,1,0,0.57
2013-4-23,41,35,29,31,27,20,96,76,46,30.04,29.93,9,2,0,0.16
2013-4-24,52,38,25,34,24,19,92,60,33,29.99,29.82,12,2,0,0.05
2013-4-25,50,39,32,33,30,25,94,73,39,30.16,29.89,6,1,0,0.01
2013-4-26,74,55,34,41,35,25,78,51,26,30.12,29.93,12,2,0,0.00
2013-4-27,74,56,35,48,42,33,98,64,35,30.06,29.87,8,1,0,0.00
2013-4-28,77,59,37,53,42,35,97,59,28,29.86,29.64,10,1,0,0.04
2013-4-29,77,62,53,56,53,49,96,76,40,29.71,29.55,4,1,0,0.10
2013-4-30,82,66,53,57,50,32,91,61,25,29.84,29.41,11,2,0,0.07
2013-5-1,53,43,34,51,39,32,94,87,77,30.40,29.84,7,1,0,0.50
2013-5-2,34,32,31,33,31,30,96,96,94,30.45,30.36,7,1,0,0.30
2013-5-3,35,32,30,34,31,29,96,95,91,30.34,30.07,4,1,0,0.47
2013-5-4,56,42,33,43,37,32,97,85,58,30.08,30.03,3,1,0,0.85
2013-5-5,70,50,34,48,40,32,94,71,44,30.09,29.97,5,1,0,0.00
2013-5-6,79,57,37,47,40,35,96,60,24,30.04,29.93,5,1,0,0.00
2013-5-7,84,62,41,48,40,36,96,54,20,30.00,29.88,6,0,0,0.00
2013-5-8,82,64,41,51,43,38,97,54,24,29.94,29.85,6,0,0,0.00
2013-5-9,62,52,42,53,49,40,96,87,69,29.99,29.85,5,0,0,0.64
2013-5-10,68,50,38,40,33,25,94,58,20,30.02,29.83,6,1,0,0.00
2013-5-11,50,45,40,45,29,21,86,56,35,30.05,29.75,13,3,0,0.05
2013-5-12,57,45,32,26,20,14,69,41,20,30.12,30.01,9,2,0,0.00
2013-5-13,65,48,25,38,28,21,93,52,22,30.09,29.64,4,1,0,0.00
2013-5-14,91,68,41,55,44,33,95,48,18,29.68,29.35,10,1,0,0.00
2013-5-15,78,67,56,46,44,37,67,45,27,29.80,29.50,9,2,0,0.00
2013-5-16,86,68,46,49,43,32,94,47,20,29.84,29.74,5,0,0,0.00
2013-5-17,66,55,50,54,48,39,96,80,43,29.97,29.83,5,1,0,0.15
2013-5-18,80,63,50,62,55,48,93,78,52,29.96,29.76,9,1,0,0.00
2013-5-19,86,68,59,66,61,56,97,81,44,29.77,29.52,7,1,0,1.64
2013-5-20,76,66,58,63,59,54,98,79,50,29.58,29.44,14,2,0,0.44
2013-5-21,70,62,57,65,58,52,98,87,62,29.60,29.45,3,0,0,0.70
2013-5-22,58,54,50,56,51,47,96,89,80,29.83,29.58,4,0,0,0.32
2013-5-23,66,52,41,49,37,28,96,61,26,30.28,29.86,7,1,0,0.00
2013-5-24,70,52,31,45,36,27,96,60,26,30.38,30.19,5,0,0,0.00
2013-5-25,60,55,50,51,47,42,96,76,54,30.25,30.17,4,0,0,0.07
2013-5-26,64,56,44,47,42,36,90,62,39,30.21,30.04,5,1,0,0.00
2013-5-27,59,56,52,54,48,41,97,77,61,30.03,29.79,4,1,0,0.27
2013-5-28,58,55,51,57,54,51,99,97,96,29.79,29.62,1,0,0,0.08
2013-5-29,78,62,56,68,60,55,98,93,67,29.77,29.64,4,0,0,0.87
2013-5-30,76,68,62,69,64,60,100,87,63,29.68,29.45,10,1,0,0.15
2013-5-31,79,66,57,67,60,55,95,81,51,29.55,29.45,10,2,0,0.80
2013-6-1,74,60,49,61,55,44,100,84,52,29.78,29.49,6,1,0,0.12
2013-6-2,66,52,44,45,42,39,89,70,40,30.00,29.79,10,1,0,0.01
2013-6-3,72,56,38,50,43,36,98,67,33,30.00,29.91,4,0,0,0.00
2013-6-4,58,55,53,55,50,43,96,84,62,30.08,29.94,1,0,0,0.20
2013-6-5,55,53,51,55,53,50,100,99,96,30.04,29.88,2,0,0,0.75
2013-6-6,55,53,51,55,52,51,100,98,95,29.94,29.87,0,0,0,0.03
2013-6-7,74,59,51,53,51,46,98,77,37,29.96,29.84,3,0,0,0.01
2013-6-8,71,61,52,59,54,49,97,79,60,29.87,29.83,3,0,0,0.00
2013-6-9,65,59,54,64,57,51,97,92,81,29.87,29.72,2,0,0,0.31
2013-6-10,76,65,55,66,59,54,100,84,58,29.76,29.71,3,0,0,0.00
2013-6-11,80,65,52,67,60,50,100,85,59,29.81,29.74,3,0,0,0.02
2013-6-12,71,65,61,68,63,60,97,94,84,29.81,29.66,1,0,0,0.14
2013-6-13,81,65,52,60,54,49,97,71,41,30.01,29.77,6,1,0,0.00
2013-6-14,81,65,50,61,54,48,98,71,40,30.05,29.84,4,0,0,0.04
2013-6-15,75,66,58,70,63,56,96,88,77,29.88,29.72,4,0,0,0.11
2013-6-16,86,68,50,61,54,48,99,66,28,29.82,29.74,9,0,0,0.00
2013-6-17,83,68,53,61,54,50,96,66,37,29.90,29.75,5,1,0,0.00
2013-6-18,81,66,56,57,52,45,90,66,28,30.02,29.91,3,0,0,0.00
2013-6-19,83,66,51,62,55,47,91,69,44,30.04,29.91,4,0,0,0.00
2013-6-20,85,70,60,73,62,56,96,76,47,29.98,29.85,4,0,0,0.26
2013-6-21,78,69,64,69,65,61,97,86,65,30.01,29.68,4,1,0,2.13
2013-6-22,81,70,63,72,67,62,100,91,71,29.94,29.75,2,0,0,0.18
2013-6-23,84,74,65,69,65,63,95,77,53,29.80,29.65,7,1,0,0.03
2013-6-24,82,72,62,72,66,59,99,81,67,29.83,29.72,5,0,0,0.00
2013-6-25,86,73,63,74,67,62,97,82,57,29.78,29.64,6,0,0,0.11
2013-6-26,87,73,67,75,70,65,98,89,62,29.67,29.58,6,0,0,0.68
2013-6-27,87,75,64,71,64,55,98,73,37,29.71,29.63,7,1,0,0.02
2013-6-28,79,68,60,69,60,55,89,78,61,29.68,29.57,9,1,0,0.07
2013-6-29,71,64,59,63,58,49,90,80,63,29.87,29.63,6,0,0,0.03
2013-6-30,84,65,48,58,52,45,97,65,30,30.01,29.87,6,0,0,0.00
2013-7-1,86,68,51,64,55,48,98,67,36,30.10,30.01,3,0,0,0.00
2013-7-2,84,68,52,64,54,48,96,66,32,30.07,29.97,1,0,0,0.00
2013-7-3,84,68,52,64,56,49,98,69,38,30.01,29.89,3,0,0,0.00
2013-7-4,87,72,57,63,59,53,95,66,40,29.92,29.83,10,1,0,0.00
2013-7-5,89,76,61,62,59,56,90,60,34,29.88,29.78,6,1,0,0.00
2013-7-6,90,75,64,70,63,59,91,67,43,29.84,29.76,5,1,0,0.00
2013-7-7,90,79,70,72,68,65,93,70,49,29.78,29.73,4,0,0,0.01
2013-7-8,88,76,69,72,69,66,94,80,52,29.88,29.72,3,0,0,0.00
2013-7-9,87,75,66,75,68,64,100,80,52,29.88,29.68,6,1,0,0.09
2013-7-10,80,71,59,67,57,53,85,65,40,29.94,29.74,8,1,0,0.00
2013-7-11,88,68,53,62,56,51,98,70,30,30.04,29.94,3,0,0,0.00
2013-7-12,87,72,59,63,60,57,96,70,41,30.00,29.89,8,1,0,0.00
2013-7-13,81,70,64,64,61,57,94,74,51,30.01,29.89,5,1,0,0.06
2013-7-14,89,74,62,67,63,59,96,72,42,30.11,30.01,5,0,0,0.00
2013-7-15,94,75,60,70,65,59,100,73,38,30.17,30.08,5,0,0,0.00
2013-7-16,98,82,70,73,70,66,96,70,35,30.12,30.07,6,1,0,0.00
2013-7-17,97,82,70,72,68,63,96,67,35,30.15,30.02,5,0,0,0.00
2013-7-18,97,84,70,71,68,66,94,63,38,30.02,29.66,7,1,0,0.00
2013-7-19,91,81,66,71,64,55,84,60,37,29.76,29.58,8,1,0,0.02
2013-7-20,86,71,60,62,58,52,95,68,37,29.88,29.74,2,0,0,0.00
2013-7-21,76,66,57,67,59,50,97,80,61,29.91,29.77,2,0,0,0.15
2013-7-22,88,71,60,74,65,56,98,83,51,29.79,29.54,6,1,0,0.05
2013-7-23,78,65,54,57,53,47,95,68,41,29.94,29.70,4,0,0,0.00
2013-7-24,78,62,48,55,50,45,97,68,36,30.01,29.91,4,0,0,0.00
2013-7-25,83,67,53,64,59,52,98,78,49,29.92,29.82,5,1,0,0.19
2013-7-26,75,65,53,64,57,49,97,79,47,29.95,29.78,12,1,0,0.03
2013-7-27,58,53,46,51,47,44,94,82,62,29.94,29.81,7,1,0,0.06
2013-7-28,69,57,48,54,51,46,97,80,54,29.98,29.83,6,1,0,0.01
2013-7-29,81,62,45,58,52,43,100,74,41,30.06,29.98,5,0,0,0.00
2013-7-30,75,66,58,64,60,56,92,81,62,30.06,29.96,4,0,0,0.02
2013-7-31,82,69,58,66,61,54,96,77,43,29.97,29.85,3,0,0,0.00
2013-8-1,84,67,52,58,53,50,96,67,32,29.94,29.77,3,0,0,0.00
2013-8-2,78,65,52,60,53,46,98,70,33,29.93,29.73,5,1,0,0.00
2013-8-3,79,62,47,56,49,44,98,67,30,30.09,29.93,7,0,0,0.00
2013-8-4,77,61,45,57,50,43,100,72,40,30.18,29.98,6,0,0,0.00
2013-8-5,70,63,54,67,60,51,97,89,78,29.96,29.73,4,0,0,0.06
2013-8-6,87,72,62,67,62,55,97,75,39,29.76,29.59,4,0,0,0.09
2013-8-7,80,66,54,62,56,49,97,75,37,29.94,29.67,4,0,0,0.01
2013-8-8,82,63,46,58,51,44,100,69,35,29.98,29.89,4,0,0,0.00
2013-8-9,82,66,54,60,53,48,98,66,33,30.01,29.89,6,1,0,0.00
2013-8-10,76,66,54,55,53,50,86,65,42,30.09,30.01,4,0,0,0.00
2013-8-11,81,66,53,62,58,50,96,77,50,30.04,29.92,3,0,0,0.00
2013-8-12,82,67,55,64,56,50,100,72,35,29.97,29.87,5,1,0,0.00
2013-8-13,75,60,47,52,48,45,97,67,36,30.11,29.98,5,0,0,0.00
2013-8-14,80,61,48,53,48,44,97,68,29,30.14,30.03,3,0,0,0.00
2013-8-15,82,64,50,56,50,44,97,66,27,30.07,29.99,4,0,0,0.00
2013-8-16,88,66,48,58,52,45,98,66,27,30.11,30.05,3,0,0,0.00
2013-8-17,87,67,49,61,52,46,100,66,28,30.15,30.04,4,0,0,0.00
2013-8-18,85,68,50,62,54,48,100,67,32,30.10,29.95,6,1,0,0.00
2013-8-19,87,70,55,66,60,53,96,73,45,29.96,29.85,7,0,0,0.00
2013-8-20,91,77,64,69,66,61,90,71,46,29.87,29.79,9,1,0,0.00
2013-8-21,90,75,66,73,68,64,95,78,51,29.90,29.76,4,1,0,0.11
2013-8-22,88,72,63,66,60,50,99,71,32,30.04,29.89,4,0,0,0.00
2013-8-23,89,70,52,63,57,49,97,68,36,30.09,29.99,4,0,0,0.00
2013-8-24,88,73,62,70,64,53,94,75,51,30.08,29.92,5,1,0,0.07
2013-8-25,97,85,76,73,70,68,78,63,42,29.96,29.86,15,2,0,0.00
2013-8-26,98,85,77,74,71,69,81,64,41,29.93,29.75,5,1,0,0.00
2013-8-27,99,84,73,77,72,69,90,69,40,29.78,29.66,3,0,0,0.00
2013-8-28,90,77,69,71,69,67,96,78,51,29.92,29.78,4,0,0,0.00
2013-8-29,96,80,67,73,70,65,96,75,42,29.94,29.76,5,0,0,0.00
2013-8-30,89,78,68,73,67,61,93,70,44,29.79,29.68,9,0,0,0.00
2013-8-31,91,73,58,66,62,56,97,72,39,29.80,29.63,6,0,0,0.00
2013-9-1,78,71,62,67,62,54,94,74,49,29.84,29.61,6,1,0,0.03
2013-9-2,74,61,50,53,50,45,84,68,43,29.98,29.84,5,0,0,0.00
2013-9-3,79,59,39,55,47,37,99,71,37,30.04,29.92,4,0,0,0.00
2013-9-4,86,66,48,65,56,46,99,73,43,30.07,29.94,4,0,0,0.00
2013-9-5,85,66,51,59,55,48,97,70,30,30.17,30.06,5,0,0,0.00
2013-9-6,92,73,58,64,61,55,96,69,36,30.06,29.81,6,1,0,0.00
2013-9-7,95,77,64,69,65,61,94,69,36,29.91,29.75,4,0,0,0.00
2013-9-8,80,69,59,63,57,50,82,67,43,30.00,29.82,3,0,0,0.00
2013-9-9,90,77,65,73,66,62,92,72,48,29.82,29.54,5,1,0,0.00
2013-9-10,87,77,70,69,65,61,92,68,43,29.85,29.61,5,0,0,0.00
2013-9-11,89,72,57,64,56,47,90,60,26,29.93,29.85,4,1,0,0.00
2013-9-12,73,62,53,54,49,44,92,66,37,30.15,29.89,9,1,0,0.00
2013-9-13,73,54,38,47,41,35,98,67,30,30.22,30.04,5,0,0,0.00
2013-9-14,78,56,37,55,44,35,99,69,30,30.05,29.85,3,0,0,0.46
2013-9-15,67,57,46,60,53,41,99,87,69,30.25,29.82,3,0,0,0.33
2013-9-16,71,50,36,46,39,34,98,71,28,30.37,30.23,3,0,0,0.00
2013-9-17,68,53,40,56,47,38,99,81,47,30.24,29.92,6,0,0,0.12
2013-9-18,72,64,57,67,62,56,99,93,81,29.92,29.67,4,0,0,0.15
2013-9-19,80,69,66,71,67,64,98,92,68,29.68,29.60,6,0,0,0.59
2013-9-20,66,61,54,64,54,47,95,80,62,29.81,29.62,6,1,0,0.00
2013-9-21,66,53,43,48,45,40,95,76,44,29.91,29.81,3,0,0,0.00
2013-9-22,71,52,37,49,44,36,98,76,43,30.00,29.86,4,0,0,0.00
2013-9-23,74,57,46,52,48,43,95,73,43,29.98,29.87,5,0,0,0.00
2013-9-24,77,57,44,57,48,42,99,76,37,29.95,29.85,4,0,0,0.00
2013-9-25,74,56,42,57,48,40,99,78,43,29.95,29.84,3,0,0,0.00
2013-9-26,79,61,46,58,52,44,99,76,47,29.95,29.86,6,0,0,0.00
2013-9-27,82,67,54,61,55,50,87,67,47,29.93,29.80,10,1,0,0.00
2013-9-28,72,60,50,62,53,48,95,78,54,29.87,29.60,6,1,0,0.26
2013-9-29,75,56,38,53,45,37,99,72,34,29.94,29.80,4,0,0,0.01
2013-9-30,76,62,51,52,48,45,85,64,35,29.79,29.60,11,2,0,0.00
2013-10-1,79,65,44,58,46,33,82,54,22,29.89,29.56,6,1,0,0.00
2013-10-2,79,57,36,54,42,33,99,64,25,30.04,29.80,4,0,0,0.09
2013-10-3,59,56,54,59,56,53,98,97,86,29.86,29.73,2,0,0,0.45
2013-10-4,59,56,55,58,56,55,99,98,97,29.92,29.81,3,0,0,0.08
2013-10-5,62,58,48,62,57,47,99,99,96,29.86,29.60,4,0,0,0.61
2013-10-6,58,48,40,50,44,39,100,86,58,29.71,29.60,2,0,0,0.04
2013-10-7,68,51,41,51,43,38,98,78,34,29.96,29.71,3,0,0,0.01
2013-10-8,75,57,40,50,44,38,98,67,34,29.96,29.84,8,1,0,0.00
2013-10-9,76,60,47,53,48,44,96,68,41,30.01,29.89,8,1,0,0.00
2013-10-10,75,55,40,53,46,38,99,76,40,30.04,29.89,4,0,0,0.00
2013-10-11,76,62,48,57,52,46,98,73,46,29.89,29.66,6,1,0,0.00
2013-10-12,67,56,46,55,44,38,77,63,46,30.07,29.65,7,1,0,0.00
2013-10-13,63,47,35,42,37,31,94,70,33,30.36,30.08,5,0,0,0.00
2013-10-14,56,45,30,43,36,28,98,74,51,30.36,29.96,5,0,0,0.00
2013-10-15,54,49,46,53,48,42,99,95,75,29.96,29.61,4,0,0,0.66
2013-10-16,48,44,33,47,41,31,97,90,79,29.86,29.66,4,0,0,0.01
2013-10-17,54,42,29,46,37,28,99,86,62,29.84,29.70,2,0,0,0.02
2013-10-18,51,42,32,44,37,29,95,82,44,29.86,29.68,4,0,0,0.12
2013-10-19,47,39,32,40,34,30,96,83,67,29.80,29.62,5,0,0,0.02
2013-10-20,42,36,28,41,35,26,98,94,90,29.74,29.58,5,0,0,0.14
2013-10-21,36,35,32,34,25,19,92,69,50,29.88,29.75,7,1,0,0.00
2013-10-22,38,32,26,30,26,21,92,77,65,29.97,29.88,3,0,0,0.00
2013-10-23,38,32,23,33,26,20,95,80,60,30.02,29.93,6,0,0,0.00
2013-10-24,42,37,31,29,26,23,76,65,50,30.24,30.01,4,0,0,0.00
2013-10-25,54,43,34,37,30,26,82,62,46,30.25,29.67,12,2,0,0.00
2013-10-26,53,44,33,39,31,26,79,61,48,30.02,29.66,8,1,0,0.00
2013-10-27,62,42,26,33,29,24,94,65,30,30.05,29.74,5,1,0,0.00
2013-10-28,48,36,26,31,24,18,81,63,39,30.39,30.06,4,0,0,0.00
2013-10-29,42,35,25,36,29,20,87,77,68,30.38,30.06,2,0,0,0.00
2013-10-30,51,45,39,51,44,36,99,97,86,30.05,29.61,1,0,0,0.18
2013-10-31,51,47,40,51,46,39,99,99,97,29.61,29.28,5,0,0,0.03
2013-11-1,44,41,39,40,38,33,97,88,75,29.75,29.28,3,0,0,0.00
2013-11-2,46,38,27,35,32,24,89,79,62,30.08,29.75,3,0,0,0.00
2013-11-3,52,38,25,36,30,22,98,73,50,30.16,29.94,16,1,0,0.00
2013-11-4,46,43,33,44,38,31,96,83,61,30.10,29.85,5,1,0,0.19
2013-11-5,43,35,27,42,33,25,99,94,91,30.21,29.87,3,0,0,0.40
2013-11-6,43,34,27,33,28,22,97,79,48,30.10,29.85,10,1,0,0.12
2013-11-7,36,29,24,28,25,22,94,85,74,30.19,30.10,3,0,0,0.00
2013-11-8,44,32,19,37,26,16,96,81,60,30.18,29.57,5,1,0,0.01
2013-11-9,45,42,37,41,33,25,88,73,55,30.06,29.56,11,2,0,0.00
2013-11-10,48,40,34,30,27,24,70,61,45,30.27,30.02,7,1,0,0.00
2013-11-11,39,27,18,31,14,5,88,58,39,30.64,30.01,9,2,0,0.00
2013-11-12,29,19,12,11,8,5,77,63,43,30.74,30.48,4,1,0,0.00
2013-11-13,49,32,14,28,20,10,87,63,43,30.46,29.83,10,2,0,0.00
2013-11-14,43,36,28,33,28,24,89,73,62,29.83,29.73,4,0,0,0.00
2013-11-15,56,38,23,43,30,21,99,77,46,29.83,29.66,5,0,0,0.00
2013-11-16,53,45,41,53,41,33,99,86,73,29.65,29.19,6,1,0,0.06
2013-11-17,44,40,32,40,36,24,95,83,71,29.67,29.24,6,1,0,0.01
2013-11-18,32,27,17,25,19,12,83,71,64,30.24,29.68,7,2,0,0.00
2013-11-19,40,28,14,24,18,10,94,69,49,30.28,29.98,5,1,0,0.00
2013-11-20,41,36,32,32,27,21,96,71,48,30.00,29.93,5,1,0,0.01
2013-11-21,36,32,25,35,30,22,98,94,84,30.39,30.01,7,1,0,0.01
2013-11-22,32,24,16,22,15,7,91,71,46,30.52,30.39,6,1,0,0.00
2013-11-23,19,12,3,8,0,-3,74,61,43,30.76,30.49,6,2,0,0.00
2013-11-24,26,14,-1,11,3,-6,85,62,40,30.70,30.02,10,2,0,0.00
2013-11-25,38,32,26,27,21,11,72,64,54,30.01,29.86,11,2,0,0.00
2013-11-26,32,21,12,20,7,0,81,56,43,30.30,29.96,14,2,0,0.00
2013-11-27,27,17,6,11,6,1,83,64,46,30.34,30.08,3,0,0,0.00
2013-11-28,29,23,12,13,10,5,73,60,50,30.49,30.05,6,1,0,0.00
2013-11-29,30,20,5,19,11,-1,88,71,57,30.55,30.18,7,0,0,0.00
2013-11-30,40,31,22,26,23,17,88,72,58,30.18,29.97,4,0,0,0.00
2013-12-1,39,26,15,27,20,12,95,80,55,30.15,29.92,1,0,0,0.00
2013-12-2,34,28,17,32,26,14,96,92,84,29.91,29.62,3,0,0,0.01
2013-12-3,34,32,30,33,32,29,97,97,96,29.74,29.58,5,1,0,0.00
2013-12-4,34,31,25,33,30,21,98,96,82,29.75,29.37,11,1,0,0.00
2013-12-5,24,10,2,19,2,-4,82,71,61,30.30,29.57,11,3,0,0.00
2013-12-6,8,2,-2,-3,-6,-10,75,69,60,30.62,30.31,4,1,0,0.00
2013-12-7,6,-3,-9,-8,-12,-16,77,66,52,30.73,30.61,7,1,0,0.00
2013-12-8,12,7,-4,7,2,-9,82,79,73,30.61,30.01,3,0,0,0.00
2013-12-9,10,2,-10,6,-5,-17,84,73,58,30.12,29.95,10,1,0,0.00
2013-12-10,10,4,-6,3,-3,-12,83,71,59,30.20,29.80,13,1,0,0.00
2013-12-11,8,-2,-8,3,-12,-16,79,63,46,30.54,30.21,7,1,0,0.00
2013-12-12,19,9,-4,11,1,-10,83,71,57,30.40,30.13,6,0,0,0.00
2013-12-13,18,15,12,12,7,4,79,72,64,30.26,30.12,4,0,0,0.00
2013-12-14,19,13,7,12,7,0,82,79,72,30.27,30.00,3,0,0,0.00
2013-12-15,6,-1,-10,-1,-10,-17,74,65,48,30.18,30.00,6,1,0,0.00
2013-12-16,15,5,-9,12,-2,-15,86,75,60,30.16,29.90,3,0,0,0.00
2013-12-17,30,22,9,26,15,1,93,74,61,30.07,29.79,9,2,0,0.00
2013-12-18,31,16,0,18,9,-5,85,73,57,30.06,29.64,6,1,0,0.01
2013-12-19,24,18,12,16,13,9,91,78,66,30.04,29.73,4,0,0,0.00
2013-12-20,20,18,16,15,12,10,84,78,70,29.98,29.81,4,0,0,0.00
2013-12-21,26,22,19,18,16,15,87,79,68,29.93,29.81,4,0,0,0.00
2013-12-22,27,22,15,21,17,11,87,81,76,30.12,29.83,3,0,0,0.00
2013-12-23,15,5,-6,11,-1,-12,84,77,70,30.48,30.13,5,1,0,0.00
2013-12-24,10,1,-13,5,-6,-20,82,74,67,30.50,30.18,5,1,0,0.00
2013-12-25,20,14,8,16,9,3,86,81,75,30.17,30.02,2,0,0,0.00
2013-12-26,26,18,12,18,12,6,84,78,69,30.16,30.07,2,0,0,0.00
2013-12-27,39,22,3,29,17,-2,93,80,65,30.16,29.86,6,1,0,0.08
2013-12-28,46,29,16,33,24,14,96,82,54,29.94,29.63,6,0,0,0.10
2013-12-29,27,5,-15,21,-6,-24,82,63,45,30.32,29.79,10,3,0,0.00
2013-12-30,0,-9,-22,-8,-18,-30,75,67,50,30.34,30.21,5,0,0,0.00
2013-12-31,0,-5,-17,-7,-14,-25,76,68,57,30.45,30.19,6,1,0,0.00
2014-1-1,6,-1,-16,-6,-11,-24,75,64,55,30.52,30.41,2,0,0,0.00
2014-1-2,8,-1,-18,-5,-10,-26,75,65,49,30.49,30.39,4,0,0,0.00